Hlavní strana
METAR-TAF:

METAR-TAF

Letiště :

Lutselk'e, Severozápadní teritoria, Kanada

zeměpisná šířka: 62-25N, zeměpisná délka: 110-40W, výška: 179 m

Aktuální stav počasí

Zpráva byla vytvořena před 4 hodinami a 50 minutami, v 01:00 UTC
Východní vítr 4 kt, proměnlivý mezi severovýchodním a jižním
Teplota -22°C
Vlhkost vzduchu 58%
Tlak 1021 hPa
Viditelnost: 40.2 km
Oblačno až skoro zataženo ve výšce 12000 ft

METAR: CYLK 210100Z 08004KT 040V170 25SM BKN120 M22/M28 A3014 RMK AC5 -21.6/-25.7/0/9 SNW CVR/MUCH LOOSE LAST STFD OBS/NEXT 211500 UTC SLP233

Čas: 22:50 (05:50 UTC)

Předpověď počasí

Zpráva byla vytvořena před 11 hodinami a 9 minutami, v 18:41 UTC
Předpověď platná od 20 v 19 UTC do 21 v 01 UTC
Východní vítr 6 kt
Viditelnost: 10 km
Skoro jasno ve výšce 15000 ft
Dočasný
od 20 v 19 UTC do 20 v 21 UTC
Viditelnost: 10 km
mlha v blízkosti

TAF: CYLK 201841Z 2019/2101 09006KT P6SM FEW150 TEMPO 2019/2021 P6SM VCFG RMK NXT FCST WILL BE ISSUED AT 211645Z

Stav a předpovědi počasí z více než 4 000 letišť (zprávy METAR a TAF).

Červené a žluté tečky na mapě představují dostupné meteorologické stanice.

Když kurzor umístíte na tečku, zobrazí se název stanice.

Pak kliknutím zobrazíte stav a předpověď počasí.

Chcete-li změnit mapu, kliknutím na zelené tlačítko se znaménkem +mapu přiblížíte, kliknutím na zelené tlačítko se znaménkem – mapu oddálíte a kliknutím na zelené šipky přejdete na sousední mapy.


METAR-TAF: